METAR AND TAF INFORMATION
METAR FOR LSZA
ADDS - METARS form results

(0332 UTC 29 January 2020)
Data provider http://aviationweather.gov/metar/data/
 
METAR text: LSZA 290320Z AUTO VRB02KT 9999 FEW085 SCT095 BKN100 04/02 Q1008
Conditions at: LSZA (LUGANO (PVT/AUT), CH) observed 0320 UTC 29 January 2020
Temperature: 4.0°C (39°F)
Dewpoint: 2.0°C (36°F) [RH = 87%]
Pressure (altimeter): 29.76 inches Hg (1008.0 mb)
Winds: variable direction winds at 2 MPH (2 knots; 1.0 m/s)
Visibility: 6 or more miles (10+ km)
Ceiling: 10000 feet AGL
Clouds: few clouds at 8500 feet AGL
scattered clouds at 9500 feet AGL
broken clouds at 10000 feet AGL
Weather: no significant weather observed at this time

METAR text: LSZA 290250Z AUTO VRB02KT 9999 FEW070 BKN080 BKN090 05/02 Q1009
Conditions at: LSZA (LUGANO (PVT/AUT), CH) observed 0250 UTC 29 January 2020
Temperature: 5.0°C (41°F)
Dewpoint: 2.0°C (36°F) [RH = 81%]
Pressure (altimeter): 29.79 inches Hg (1009.0 mb)
Winds: variable direction winds at 2 MPH (2 knots; 1.0 m/s)
Visibility: 6 or more miles (10+ km)
Ceiling: 8000 feet AGL
Clouds: few clouds at 7000 feet AGL
broken clouds at 8000 feet AGL
broken clouds at 9000 feet AGL
Weather: no significant weather observed at this time

 AIRPORT MAP

 RUNWAY INFORMATION
Runway 01 Runway length 4429 ft Runway width 98 ft
Runway elevation 896 ft Runway displaced threshold 361 ft Runway heading 19
Runway 19 Runway length 4429 ft Runway width 98 ft
Runway elevation 915 ft Runway displaced threshold 672 ft Runway heading 199

 AIRPORT FREQUENCIES
Type ATIS Name ATIS Frequency 121.175 MHZ
Type GND Name GND Frequency 121.775 MHZ
Type TWR Name TWR Frequency 120.25 MHZ

 AIRPORT NEAR NAVIGATION AIDS